sensor_id;sensor_type;location;lat;lon;timestamp;pressure;altitude;pressure_sealevel;temperature;humidity
60055;BME280;45930;53.514;55.904;2023-03-23T00:00:36;48997.28;;;-149.77;100.00
60055;BME280;45930;53.514;55.904;2023-03-23T00:01:37;49005.19;;;-149.77;100.00
60055;BME280;45930;53.514;55.904;2023-03-23T00:02:38;49011.16;;;-149.77;100.00
60055;BME280;45930;53.514;55.904;2023-03-23T00:03:40;49015.09;;;-149.77;100.00
60055;BME280;45930;53.514;55.904;2023-03-23T00:04:41;48993.31;;;-149.77;100.00
60055;BME280;45930;53.514;55.904;2023-03-23T00:05:43;49009.16;;;-149.77;100.00
60055;BME280;45930;53.514;55.904;2023-03-23T00:06:50;49001.25;;;-149.77;100.00
60055;BME280;45930;53.514;55.904;2023-03-23T00:07:51;48993.31;;;-149.77;100.00
60055;BME280;45930;53.514;55.904;2023-03-23T00:08:55;49021.06;;;-149.77;100.00
60055;BME280;45930;53.514;55.904;2023-03-23T00:10:00;49019.06;;;-149.77;100.00
60055;BME280;45930;53.514;55.904;2023-03-23T00:11:06;49036.91;;;-149.77;100.00
60055;BME280;45930;53.514;55.904;2023-03-23T00:12:08;49052.75;;;-149.77;100.00
60055;BME280;45930;53.514;55.904;2023-03-23T00:13:08;49052.75;;;-149.77;100.00
60055;BME280;45930;53.514;55.904;2023-03-23T00:14:11;49066.59;;;-149.77;100.00
60055;BME280;45930;53.514;55.904;2023-03-23T00:15:15;49078.50;;;-149.77;100.00
60055;BME280;45930;53.514;55.904;2023-03-23T00:16:21;49048.78;;;-149.77;100.00
60055;BME280;45930;53.514;55.904;2023-03-23T00:17:31;49080.47;;;-149.77;100.00
60055;BME280;45930;53.514;55.904;2023-03-23T00:18:33;49082.44;;;-149.77;100.00
60055;BME280;45930;53.514;55.904;2023-03-23T00:19:37;49076.50;;;-149.77;100.00
60055;BME280;45930;53.514;55.904;2023-03-23T00:20:50;49092.34;;;-149.77;100.00
60055;BME280;45930;53.514;55.904;2023-03-23T00:21:51;49082.44;;;-149.77;100.00
60055;BME280;45930;53.514;55.904;2023-03-23T00:22:54;49104.25;;;-149.77;100.00
60055;BME280;45930;53.514;55.904;2023-03-23T00:24:05;49056.69;;;-149.77;100.00
60055;BME280;45930;53.514;55.904;2023-03-23T00:25:07;49044.81;;;-149.77;100.00
60055;BME280;45930;53.514;55.904;2023-03-23T00:26:12;49072.53;;;-149.77;100.00
60055;BME280;45930;53.514;55.904;2023-03-23T00:27:13;49074.53;;;-149.77;100.00
60055;BME280;45930;53.514;55.904;2023-03-23T00:28:16;49078.50;;;-149.77;100.00
60055;BME280;45930;53.514;55.904;2023-03-23T00:29:22;49048.78;;;-149.77;100.00
60055;BME280;45930;53.514;55.904;2023-03-23T00:30:23;49058.69;;;-149.77;100.00
60055;BME280;45930;53.514;55.904;2023-03-23T00:31:24;49070.56;;;-149.77;100.00
60055;BME280;45930;53.514;55.904;2023-03-23T00:32:25;49056.69;;;-149.77;100.00
60055;BME280;45930;53.514;55.904;2023-03-23T00:33:34;49048.78;;;-149.77;100.00
60055;BME280;45930;53.514;55.904;2023-03-23T00:34:39;49036.91;;;-149.77;100.00
60055;BME280;45930;53.514;55.904;2023-03-23T00:35:40;49032.94;;;-149.77;100.00
60055;BME280;45930;53.514;55.904;2023-03-23T00:36:41;49044.81;;;-149.77;100.00
60055;BME280;45930;53.514;55.904;2023-03-23T00:37:43;49062.66;;;-149.77;100.00
60055;BME280;45930;53.514;55.904;2023-03-23T00:38:44;49064.63;;;-149.77;100.00
60055;BME280;45930;53.514;55.904;2023-03-23T00:39:47;49066.59;;;-149.77;100.00
60055;BME280;45930;53.514;55.904;2023-03-23T00:40:48;49076.50;;;-149.77;100.00
60055;BME280;45930;53.514;55.904;2023-03-23T00:41:49;49106.22;;;-149.77;100.00
60055;BME280;45930;53.514;55.904;2023-03-23T00:42:50;49076.50;;;-149.77;100.00
60055;BME280;45930;53.514;55.904;2023-03-23T00:43:51;49096.31;;;-149.77;100.00
60055;BME280;45930;53.514;55.904;2023-03-23T00:44:52;49066.59;;;-149.77;100.00
60055;BME280;45930;53.514;55.904;2023-03-23T00:46:00;49068.59;;;-149.77;100.00
60055;BME280;45930;53.514;55.904;2023-03-23T00:47:03;49076.50;;;-149.77;100.00
60055;BME280;45930;53.514;55.904;2023-03-23T00:48:04;49040.84;;;-149.77;100.00
60055;BME280;45930;53.514;55.904;2023-03-23T00:49:05;49068.59;;;-149.77;100.00
60055;BME280;45930;53.514;55.904;2023-03-23T00:50:06;49072.53;;;-149.77;100.00
60055;BME280;45930;53.514;55.904;2023-03-23T00:51:07;49068.59;;;-149.77;100.00
60055;BME280;45930;53.514;55.904;2023-03-23T00:52:12;49086.41;;;-149.77;100.00
60055;BME280;45930;53.514;55.904;2023-03-23T00:53:13;49078.50;;;-149.77;100.00
60055;BME280;45930;53.514;55.904;2023-03-23T00:54:13;49074.53;;;-149.77;100.00
60055;BME280;45930;53.514;55.904;2023-03-23T00:55:14;49078.50;;;-149.77;100.00
60055;BME280;45930;53.514;55.904;2023-03-23T00:56:15;49076.50;;;-149.77;100.00
60055;BME280;45930;53.514;55.904;2023-03-23T00:57:16;49092.34;;;-149.77;100.00
60055;BME280;45930;53.514;55.904;2023-03-23T00:58:17;49088.41;;;-149.77;100.00
60055;BME280;45930;53.514;55.904;2023-03-23T00:59:19;49072.53;;;-149.77;100.00
60055;BME280;45930;53.514;55.904;2023-03-23T01:00:20;49088.41;;;-149.77;100.00
60055;BME280;45930;53.514;55.904;2023-03-23T01:01:21;49088.41;;;-149.77;100.00
60055;BME280;45930;53.514;55.904;2023-03-23T01:02:21;49072.53;;;-149.77;100.00
60055;BME280;45930;53.514;55.904;2023-03-23T01:03:25;49108.19;;;-149.77;100.00
60055;BME280;45930;53.514;55.904;2023-03-23T01:04:26;49120.09;;;-149.77;100.00
60055;BME280;45930;53.514;55.904;2023-03-23T01:05:28;49130.00;;;-149.77;100.00
60055;BME280;45930;53.514;55.904;2023-03-23T01:06:36;49116.13;;;-149.77;100.00
60055;BME280;45930;53.514;55.904;2023-03-23T01:07:40;49102.25;;;-149.77;99.65
60055;BME280;45930;53.514;55.904;2023-03-23T01:08:41;49124.03;;;-149.77;100.00
60055;BME280;45930;53.514;55.904;2023-03-23T01:09:46;49096.31;;;-149.77;100.00
60055;BME280;45930;53.514;55.904;2023-03-23T01:10:48;49092.34;;;-149.77;100.00
60055;BME280;45930;53.514;55.904;2023-03-23T01:11:50;49120.09;;;-149.77;100.00
60055;BME280;45930;53.514;55.904;2023-03-23T01:12:52;49116.13;;;-149.77;100.00
60055;BME280;45930;53.514;55.904;2023-03-23T01:13:53;49120.09;;;-149.77;100.00
60055;BME280;45930;53.514;55.904;2023-03-23T01:14:54;49104.25;;;-149.77;100.00
60055;BME280;45930;53.514;55.904;2023-03-23T01:15:55;49116.13;;;-149.77;100.00
60055;BME280;45930;53.514;55.904;2023-03-23T01:16:56;49122.06;;;-149.77;100.00
60055;BME280;45930;53.514;55.904;2023-03-23T01:17:57;49124.03;;;-149.77;100.00
60055;BME280;45930;53.514;55.904;2023-03-23T01:18:58;49110.19;;;-149.77;100.00
60055;BME280;45930;53.514;55.904;2023-03-23T01:19:59;49096.31;;;-149.77;100.00
60055;BME280;45930;53.514;55.904;2023-03-23T01:21:07;49094.34;;;-149.77;100.00
60055;BME280;45930;53.514;55.904;2023-03-23T01:22:09;49106.22;;;-149.77;100.00
60055;BME280;45930;53.514;55.904;2023-03-23T01:23:09;49088.41;;;-149.77;100.00
60055;BME280;45930;53.514;55.904;2023-03-23T01:24:10;49100.28;;;-149.77;100.00
60055;BME280;45930;53.514;55.904;2023-03-23T01:25:12;49072.53;;;-149.77;100.00
60055;BME280;45930;53.514;55.904;2023-03-23T01:26:16;49092.34;;;-149.77;100.00
60055;BME280;45930;53.514;55.904;2023-03-23T01:27:17;49084.44;;;-149.77;100.00
60055;BME280;45930;53.514;55.904;2023-03-23T01:28:18;49104.25;;;-149.77;100.00
60055;BME280;45930;53.514;55.904;2023-03-23T01:29:19;49092.34;;;-149.77;100.00
60055;BME280;45930;53.514;55.904;2023-03-23T01:30:20;49102.25;;;-149.77;100.00
60055;BME280;45930;53.514;55.904;2023-03-23T01:31:23;49112.16;;;-149.77;100.00
60055;BME280;45930;53.514;55.904;2023-03-23T01:32:25;49104.25;;;-149.77;100.00
60055;BME280;45930;53.514;55.904;2023-03-23T01:33:26;49102.25;;;-149.77;100.00
60055;BME280;45930;53.514;55.904;2023-03-23T01:34:26;49100.28;;;-149.77;100.00
60055;BME280;45930;53.514;55.904;2023-03-23T01:35:27;49128.00;;;-149.77;100.00
60055;BME280;45930;53.514;55.904;2023-03-23T01:36:29;49104.25;;;-149.77;100.00
60055;BME280;45930;53.514;55.904;2023-03-23T01:37:33;49130.00;;;-149.77;100.00
60055;BME280;45930;53.514;55.904;2023-03-23T01:38:34;49124.03;;;-149.77;100.00
60055;BME280;45930;53.514;55.904;2023-03-23T01:39:36;49120.09;;;-149.77;100.00
60055;BME280;45930;53.514;55.904;2023-03-23T01:40:37;49080.47;;;-149.77;100.00
60055;BME280;45930;53.514;55.904;2023-03-23T01:41:38;49104.25;;;-149.77;100.00
60055;BME280;45930;53.514;55.904;2023-03-23T01:42:41;49080.47;;;-149.77;100.00
60055;BME280;45930;53.514;55.904;2023-03-23T01:43:58;49094.34;;;-149.77;100.00
60055;BME280;45930;53.514;55.904;2023-03-23T01:46:20;49094.34;;;-149.77;100.00
60055;BME280;45930;53.514;55.904;2023-03-23T01:47:22;49100.28;;;-149.77;100.00
60055;BME280;45930;53.514;55.904;2023-03-23T01:48:35;49076.50;;;-149.77;100.00
60055;BME280;45930;53.514;55.904;2023-03-23T01:49:41;49096.31;;;-149.77;100.00
60055;BME280;45930;53.514;55.904;2023-03-23T01:52:02;49088.41;;;-149.77;100.00
60055;BME280;45930;53.514;55.904;2023-03-23T01:53:06;49088.41;;;-149.77;100.00
60055;BME280;45930;53.514;55.904;2023-03-23T01:54:12;49068.59;;;-149.77;100.00
60055;BME280;45930;53.514;55.904;2023-03-23T01:55:20;49066.59;;;-149.77;100.00
60055;BME280;45930;53.514;55.904;2023-03-23T01:56:24;49048.78;;;-149.77;100.00
60055;BME280;45930;53.514;55.904;2023-03-23T01:57:27;49052.75;;;-149.77;100.00
60055;BME280;45930;53.514;55.904;2023-03-23T01:58:32;49040.84;;;-149.77;100.00
60055;BME280;45930;53.514;55.904;2023-03-23T01:59:34;49050.75;;;-149.77;100.00
60055;BME280;45930;53.514;55.904;2023-03-23T02:00:37;49032.94;;;-149.77;100.00
60055;BME280;45930;53.514;55.904;2023-03-23T02:01:41;49050.75;;;-149.77;100.00
60055;BME280;45930;53.514;55.904;2023-03-23T02:02:48;49072.53;;;-149.77;100.00
60055;BME280;45930;53.514;55.904;2023-03-23T02:03:52;49058.69;;;-149.77;100.00
60055;BME280;45930;53.514;55.904;2023-03-23T02:04:58;49082.44;;;-149.77;100.00
60055;BME280;45930;53.514;55.904;2023-03-23T02:06:01;49060.66;;;-149.77;100.00
60055;BME280;45930;53.514;55.904;2023-03-23T02:07:03;49068.59;;;-149.77;100.00
60055;BME280;45930;53.514;55.904;2023-03-23T02:08:05;49036.91;;;-149.77;100.00
60055;BME280;45930;53.514;55.904;2023-03-23T02:09:09;49060.66;;;-149.77;100.00
60055;BME280;45930;53.514;55.904;2023-03-23T02:10:10;49050.75;;;-149.77;100.00
60055;BME280;45930;53.514;55.904;2023-03-23T02:11:15;49038.88;;;-149.77;100.00
60055;BME280;45930;53.514;55.904;2023-03-23T02:12:17;49056.69;;;-149.77;100.00
60055;BME280;45930;53.514;55.904;2023-03-23T02:13:18;49042.84;;;-149.77;100.00
60055;BME280;45930;53.514;55.904;2023-03-23T02:14:20;49042.84;;;-149.77;100.00
60055;BME280;45930;53.514;55.904;2023-03-23T02:15:21;49042.84;;;-149.77;100.00
60055;BME280;45930;53.514;55.904;2023-03-23T02:24:04;49070.56;;;-149.77;100.00
60055;BME280;45930;53.514;55.904;2023-03-23T02:30:19;49005.19;;;-149.77;100.00
60055;BME280;45930;53.514;55.904;2023-03-23T02:31:03;49036.91;;;-149.77;100.00
60055;BME280;45930;53.514;55.904;2023-03-23T02:32:21;49017.09;;;-149.77;100.00
60055;BME280;45930;53.514;55.904;2023-03-23T02:33:36;49023.03;;;-149.77;100.00
60055;BME280;45930;53.514;55.904;2023-03-23T02:34:42;49032.94;;;-149.77;100.00
60055;BME280;45930;53.514;55.904;2023-03-23T02:35:50;49017.09;;;-149.77;100.00
60055;BME280;45930;53.514;55.904;2023-03-23T02:37:03;49013.13;;;-149.77;100.00
60055;BME280;45930;53.514;55.904;2023-03-23T02:38:14;49025.00;;;-149.77;100.00
60055;BME280;45930;53.514;55.904;2023-03-23T02:39:22;49013.13;;;-149.77;100.00
60055;BME280;45930;53.514;55.904;2023-03-23T02:40:29;49021.06;;;-149.77;100.00
60055;BME280;45930;53.514;55.904;2023-03-23T02:41:38;48993.31;;;-149.77;100.00
60055;BME280;45930;53.514;55.904;2023-03-23T02:42:43;49028.97;;;-149.77;100.00
60055;BME280;45930;53.514;55.904;2023-03-23T02:43:46;49009.16;;;-149.77;100.00
60055;BME280;45930;53.514;55.904;2023-03-23T02:44:48;49028.97;;;-149.77;100.00
60055;BME280;45930;53.514;55.904;2023-03-23T02:45:51;49052.75;;;-149.77;100.00
60055;BME280;45930;53.514;55.904;2023-03-23T02:46:53;49027.00;;;-149.77;100.00
60055;BME280;45930;53.514;55.904;2023-03-23T02:47:55;48973.50;;;-149.77;100.00
60055;BME280;45930;53.514;55.904;2023-03-23T02:48:57;49021.06;;;-149.77;100.00
60055;BME280;45930;53.514;55.904;2023-03-23T02:49:59;49028.97;;;-149.77;100.00
60055;BME280;45930;53.514;55.904;2023-03-23T02:51:01;48997.28;;;-149.77;100.00
60055;BME280;45930;53.514;55.904;2023-03-23T02:52:06;48993.31;;;-149.77;100.00
60055;BME280;45930;53.514;55.904;2023-03-23T02:53:10;49011.16;;;-149.77;100.00
60055;BME280;45930;53.514;55.904;2023-03-23T02:54:11;49017.09;;;-149.77;100.00
60055;BME280;45930;53.514;55.904;2023-03-23T02:55:13;49009.16;;;-149.77;100.00
60055;BME280;45930;53.514;55.904;2023-03-23T02:56:14;49025.00;;;-149.77;100.00
60055;BME280;45930;53.514;55.904;2023-03-23T02:57:15;49025.00;;;-149.77;100.00
60055;BME280;45930;53.514;55.904;2023-03-23T02:58:16;49007.19;;;-149.77;100.00
60055;BME280;45930;53.514;55.904;2023-03-23T02:59:17;48977.47;;;-149.77;100.00
60055;BME280;45930;53.514;55.904;2023-03-23T03:00:18;48997.28;;;-149.77;100.00
60055;BME280;45930;53.514;55.904;2023-03-23T03:02:35;49013.13;;;-149.77;100.00
60055;BME280;45930;53.514;55.904;2023-03-23T03:03:37;48995.31;;;-149.77;100.00
60055;BME280;45930;53.514;55.904;2023-03-23T03:04:39;48987.38;;;-149.77;100.00
60055;BME280;45930;53.514;55.904;2023-03-23T03:06:10;49001.25;;;-149.77;100.00
60055;BME280;45930;53.514;55.904;2023-03-23T03:08:53;48993.31;;;-149.77;100.00
60055;BME280;45930;53.514;55.904;2023-03-23T03:10:19;49009.16;;;-149.77;100.00
60055;BME280;45930;53.514;55.904;2023-03-23T03:11:23;48969.56;;;-149.77;100.00
60055;BME280;45930;53.514;55.904;2023-03-23T03:12:49;48985.41;;;-149.77;100.00
60055;BME280;45930;53.514;55.904;2023-03-23T03:14:04;48989.34;;;-149.77;100.00
60055;BME280;45930;53.514;55.904;2023-03-23T03:16:58;48963.63;;;-149.77;100.00
60055;BME280;45930;53.514;55.904;2023-03-23T03:18:09;48981.44;;;-149.77;100.00
60055;BME280;45930;53.514;55.904;2023-03-23T03:19:23;48973.50;;;-149.77;100.00
60055;BME280;45930;53.514;55.904;2023-03-23T03:20:27;49015.09;;;-149.77;100.00
60055;BME280;45930;53.514;55.904;2023-03-23T03:21:33;48975.50;;;-149.77;100.00
60055;BME280;45930;53.514;55.904;2023-03-23T03:22:38;48981.44;;;-149.77;100.00
60055;BME280;45930;53.514;55.904;2023-03-23T03:23:44;48975.50;;;-149.77;100.00
60055;BME280;45930;53.514;55.904;2023-03-23T03:24:50;49007.19;;;-149.77;100.00
60055;BME280;45930;53.514;55.904;2023-03-23T03:25:53;48959.66;;;-149.77;100.00
60055;BME280;45930;53.514;55.904;2023-03-23T03:27:00;48977.47;;;-149.77;100.00
60055;BME280;45930;53.514;55.904;2023-03-23T03:28:02;49005.19;;;-149.77;100.00
60055;BME280;45930;53.514;55.904;2023-03-23T03:29:04;48977.47;;;-149.77;100.00
60055;BME280;45930;53.514;55.904;2023-03-23T03:30:09;48977.47;;;-149.77;100.00
60055;BME280;45930;53.514;55.904;2023-03-23T03:31:12;48983.41;;;-149.77;100.00
60055;BME280;45930;53.514;55.904;2023-03-23T03:32:17;48981.44;;;-149.77;100.00
60055;BME280;45930;53.514;55.904;2023-03-23T03:33:21;48997.28;;;-149.77;100.00
60055;BME280;45930;53.514;55.904;2023-03-23T03:34:25;48969.56;;;-149.77;100.00
60055;BME280;45930;53.514;55.904;2023-03-23T03:35:27;48979.47;;;-149.77;100.00
60055;BME280;45930;53.514;55.904;2023-03-23T03:36:30;48967.56;;;-149.77;100.00
60055;BME280;45930;53.514;55.904;2023-03-23T03:37:35;48975.50;;;-149.77;100.00
60055;BME280;45930;53.514;55.904;2023-03-23T03:38:44;48959.66;;;-149.77;100.00
60055;BME280;45930;53.514;55.904;2023-03-23T03:39:46;48971.53;;;-149.77;100.00
60055;BME280;45930;53.514;55.904;2023-03-23T03:40:46;48951.72;;;-149.77;100.00
60055;BME280;45930;53.514;55.904;2023-03-23T03:41:47;48961.63;;;-149.77;100.00
60055;BME280;45930;53.514;55.904;2023-03-23T03:42:48;48957.66;;;-149.77;100.00
60055;BME280;45930;53.514;55.904;2023-03-23T03:43:49;48939.84;;;-149.77;100.00
60055;BME280;45930;53.514;55.904;2023-03-23T03:44:49;48971.53;;;-149.77;100.00
60055;BME280;45930;53.514;55.904;2023-03-23T03:45:50;48922.03;;;-149.77;100.00
60055;BME280;45930;53.514;55.904;2023-03-23T03:46:51;48967.56;;;-149.77;100.00
60055;BME280;45930;53.514;55.904;2023-03-23T03:47:52;48963.63;;;-149.77;100.00
60055;BME280;45930;53.514;55.904;2023-03-23T03:48:53;48957.66;;;-149.77;100.00
60055;BME280;45930;53.514;55.904;2023-03-23T03:49:54;48953.72;;;-149.77;100.00
60055;BME280;45930;53.514;55.904;2023-03-23T03:50:54;48937.88;;;-149.77;100.00
60055;BME280;45930;53.514;55.904;2023-03-23T03:51:57;48957.66;;;-149.77;100.00
60055;BME280;45930;53.514;55.904;2023-03-23T03:52:57;48920.03;;;-149.77;100.00
60055;BME280;45930;53.514;55.904;2023-03-23T03:53:58;48967.56;;;-149.77;100.00
60055;BME280;45930;53.514;55.904;2023-03-23T03:54:59;48969.56;;;-149.77;100.00
60055;BME280;45930;53.514;55.904;2023-03-23T03:56:00;48939.84;;;-149.77;100.00
60055;BME280;45930;53.514;55.904;2023-03-23T03:57:01;48947.75;;;-149.77;100.00
60055;BME280;45930;53.514;55.904;2023-03-23T03:58:02;48967.56;;;-149.77;100.00
60055;BME280;45930;53.514;55.904;2023-03-23T03:59:04;48947.75;;;-149.77;100.00
60055;BME280;45930;53.514;55.904;2023-03-23T04:00:07;48975.50;;;-149.77;100.00
60055;BME280;45930;53.514;55.904;2023-03-23T04:01:18;48947.75;;;-149.77;100.00
60055;BME280;45930;53.514;55.904;2023-03-23T04:02:21;48997.28;;;-149.77;100.00
60055;BME280;45930;53.514;55.904;2023-03-23T04:03:22;48957.66;;;-149.77;100.00
60055;BME280;45930;53.514;55.904;2023-03-23T04:04:23;48947.75;;;-149.77;100.00
60055;BME280;45930;53.514;55.904;2023-03-23T04:05:24;48953.72;;;-149.77;100.00
60055;BME280;45930;53.514;55.904;2023-03-23T04:06:24;48955.69;;;-149.77;100.00
60055;BME280;45930;53.514;55.904;2023-03-23T04:07:28;48953.72;;;-149.77;100.00
60055;BME280;45930;53.514;55.904;2023-03-23T04:08:30;48985.41;;;-149.77;100.00
60055;BME280;45930;53.514;55.904;2023-03-23T04:09:32;48933.91;;;-149.77;100.00
60055;BME280;45930;53.514;55.904;2023-03-23T04:10:33;48943.81;;;-149.77;100.00
60055;BME280;45930;53.514;55.904;2023-03-23T04:11:34;48955.69;;;-149.77;100.00
60055;BME280;45930;53.514;55.904;2023-03-23T04:12:35;48933.91;;;-149.77;100.00
60055;BME280;45930;53.514;55.904;2023-03-23T04:13:36;48983.41;;;-149.77;100.00
60055;BME280;45930;53.514;55.904;2023-03-23T04:14:37;48983.41;;;-149.77;100.00
60055;BME280;45930;53.514;55.904;2023-03-23T04:15:38;48959.66;;;-149.77;100.00
60055;BME280;45930;53.514;55.904;2023-03-23T04:16:39;48993.31;;;-149.77;100.00
60055;BME280;45930;53.514;55.904;2023-03-23T04:17:44;48997.28;;;-149.77;100.00
60055;BME280;45930;53.514;55.904;2023-03-23T04:18:44;49015.09;;;-149.77;100.00
60055;BME280;45930;53.514;55.904;2023-03-23T04:19:48;49005.19;;;-149.77;100.00
60055;BME280;45930;53.514;55.904;2023-03-23T04:20:49;48991.34;;;-149.77;100.00
60055;BME280;45930;53.514;55.904;2023-03-23T04:21:50;48979.47;;;-149.77;100.00
60055;BME280;45930;53.514;55.904;2023-03-23T04:22:52;48989.34;;;-149.77;100.00
60055;BME280;45930;53.514;55.904;2023-03-23T04:23:56;48985.41;;;-149.77;100.00
60055;BME280;45930;53.514;55.904;2023-03-23T04:25:01;49025.00;;;-149.77;100.00
60055;BME280;45930;53.514;55.904;2023-03-23T04:26:06;49015.09;;;-149.77;100.00
60055;BME280;45930;53.514;55.904;2023-03-23T04:27:07;49001.25;;;-149.77;100.00
60055;BME280;45930;53.514;55.904;2023-03-23T04:28:08;48999.25;;;-149.77;99.78
60055;BME280;45930;53.514;55.904;2023-03-23T04:29:10;49009.16;;;-149.77;99.27
60055;BME280;45930;53.514;55.904;2023-03-23T04:30:13;49011.16;;;-149.77;98.85
60055;BME280;45930;53.514;55.904;2023-03-23T04:31:14;49023.03;;;-149.77;99.33
60055;BME280;45930;53.514;55.904;2023-03-23T04:32:15;48981.44;;;-149.77;99.26
60055;BME280;45930;53.514;55.904;2023-03-23T04:33:22;49036.91;;;-149.77;99.13
60055;BME280;45930;53.514;55.904;2023-03-23T04:34:25;49005.19;;;-149.77;98.82
60055;BME280;45930;53.514;55.904;2023-03-23T04:35:26;49009.16;;;-149.77;98.51
60055;BME280;45930;53.514;55.904;2023-03-23T04:36:27;49011.16;;;-149.77;98.65
60055;BME280;45930;53.514;55.904;2023-03-23T04:37:34;49013.13;;;-149.77;98.17
60055;BME280;45930;53.514;55.904;2023-03-23T04:38:35;49013.13;;;-149.77;98.42
60055;BME280;45930;53.514;55.904;2023-03-23T04:39:36;49030.94;;;-149.77;97.84
60055;BME280;45930;53.514;55.904;2023-03-23T04:40:38;49007.19;;;-149.77;97.48
60055;BME280;45930;53.514;55.904;2023-03-23T04:41:40;49028.97;;;-149.77;97.25
60055;BME280;45930;53.514;55.904;2023-03-23T04:42:42;49028.97;;;-149.77;97.01
60055;BME280;45930;53.514;55.904;2023-03-23T04:43:47;49025.00;;;-149.77;97.02
60055;BME280;45930;53.514;55.904;2023-03-23T04:44:52;49032.94;;;-149.77;95.84
60055;BME280;45930;53.514;55.904;2023-03-23T04:45:56;49027.00;;;-149.77;95.76
60055;BME280;45930;53.514;55.904;2023-03-23T04:46:57;49017.09;;;-149.77;94.81
60055;BME280;45930;53.514;55.904;2023-03-23T04:47:58;49046.78;;;-149.77;94.42
60055;BME280;45930;53.514;55.904;2023-03-23T04:48:59;49028.97;;;-149.77;94.61
60055;BME280;45930;53.514;55.904;2023-03-23T04:50:00;48995.31;;;-149.77;94.87
60055;BME280;45930;53.514;55.904;2023-03-23T04:51:02;49038.88;;;-149.77;94.28
60055;BME280;45930;53.514;55.904;2023-03-23T04:52:04;49064.63;;;-149.77;93.37
60055;BME280;45930;53.514;55.904;2023-03-23T04:53:06;49021.06;;;-149.77;92.95
60055;BME280;45930;53.514;55.904;2023-03-23T04:54:06;49060.66;;;-149.77;94.25
60055;BME280;45930;53.514;55.904;2023-03-23T04:55:08;49038.88;;;-149.77;93.50
60055;BME280;45930;53.514;55.904;2023-03-23T04:56:09;49034.91;;;-149.77;94.35
60055;BME280;45930;53.514;55.904;2023-03-23T04:57:10;49013.13;;;-149.77;93.85
60055;BME280;45930;53.514;55.904;2023-03-23T04:58:13;49025.00;;;-149.77;93.66
60055;BME280;45930;53.514;55.904;2023-03-23T04:59:14;49032.94;;;-149.77;93.11
60055;BME280;45930;53.514;55.904;2023-03-23T05:00:16;49025.00;;;-149.77;92.90
60055;BME280;45930;53.514;55.904;2023-03-23T05:01:17;48997.28;;;-149.77;92.76
60055;BME280;45930;53.514;55.904;2023-03-23T05:02:18;49034.91;;;-149.77;91.57
60055;BME280;45930;53.514;55.904;2023-03-23T05:03:19;49044.81;;;-149.77;91.11
60055;BME280;45930;53.514;55.904;2023-03-23T05:04:20;49021.06;;;-149.77;90.41
60055;BME280;45930;53.514;55.904;2023-03-23T05:05:22;49052.75;;;-149.77;89.67
60055;BME280;45930;53.514;55.904;2023-03-23T05:06:23;49038.88;;;-149.77;86.09
60055;BME280;45930;53.514;55.904;2023-03-23T05:07:24;49068.59;;;-149.77;87.22
60055;BME280;45930;53.514;55.904;2023-03-23T05:08:25;49038.88;;;-149.77;87.10
60055;BME280;45930;53.514;55.904;2023-03-23T05:09:25;49048.78;;;-149.77;86.52
60055;BME280;45930;53.514;55.904;2023-03-23T05:10:26;49034.91;;;-149.77;86.86
60055;BME280;45930;53.514;55.904;2023-03-23T05:11:27;49058.69;;;-149.77;85.25
60055;BME280;45930;53.514;55.904;2023-03-23T05:12:28;49068.59;;;-149.77;83.13
60055;BME280;45930;53.514;55.904;2023-03-23T05:13:28;49080.47;;;-149.77;82.55
60055;BME280;45930;53.514;55.904;2023-03-23T05:14:29;49064.63;;;-149.77;84.26
60055;BME280;45930;53.514;55.904;2023-03-23T05:15:30;49052.75;;;-149.77;84.72
60055;BME280;45930;53.514;55.904;2023-03-23T05:16:31;49050.75;;;-149.77;85.51
60055;BME280;45930;53.514;55.904;2023-03-23T05:17:33;49038.88;;;-149.77;86.05
60055;BME280;45930;53.514;55.904;2023-03-23T05:18:36;49058.69;;;-149.77;83.56
60055;BME280;45930;53.514;55.904;2023-03-23T05:19:37;49050.75;;;-149.77;83.63
60055;BME280;45930;53.514;55.904;2023-03-23T05:20:38;49064.63;;;-149.77;82.36
60055;BME280;45930;53.514;55.904;2023-03-23T05:21:39;49056.69;;;-149.77;82.93
60055;BME280;45930;53.514;55.904;2023-03-23T05:22:41;49042.84;;;-149.77;81.92
60055;BME280;45930;53.514;55.904;2023-03-23T05:23:42;49064.63;;;-149.77;83.20
60055;BME280;45930;53.514;55.904;2023-03-23T05:24:43;49040.84;;;-149.77;82.89
60055;BME280;45930;53.514;55.904;2023-03-23T05:25:44;49038.88;;;-149.77;82.68
60055;BME280;45930;53.514;55.904;2023-03-23T05:26:45;49056.69;;;-149.77;82.31
60055;BME280;45930;53.514;55.904;2023-03-23T05:27:48;49034.91;;;-149.77;79.51
60055;BME280;45930;53.514;55.904;2023-03-23T05:28:55;49084.44;;;-149.77;81.78
60055;BME280;45930;53.514;55.904;2023-03-23T05:29:56;49052.75;;;-149.77;80.22
60055;BME280;45930;53.514;55.904;2023-03-23T05:30:58;49068.59;;;-149.77;80.09
60055;BME280;45930;53.514;55.904;2023-03-23T05:31:59;49025.00;;;-149.77;81.15
60055;BME280;45930;53.514;55.904;2023-03-23T05:33:00;49048.78;;;-149.77;80.09
60055;BME280;45930;53.514;55.904;2023-03-23T05:34:01;49040.84;;;-149.77;80.05
60055;BME280;45930;53.514;55.904;2023-03-23T05:35:04;49028.97;;;-149.77;80.46
60055;BME280;45930;53.514;55.904;2023-03-23T05:36:05;49084.44;;;-149.77;79.50
60055;BME280;45930;53.514;55.904;2023-03-23T05:37:11;49044.81;;;-149.77;78.40
60055;BME280;45930;53.514;55.904;2023-03-23T05:38:13;49060.66;;;-149.77;79.24